Ajaccio, France

12:52 AM CET on March 04, 2015 (GMT +0100)
Campo Dell' Oro | Change Station
CLOSE
Current Station
Airport
Location: Ajaccio,
Elevation: 30 ft
Nearby Weather Stations

Elev 30 ft 41.92 °N, 8.80 °E | Updated 22 minutes ago

Clear
Clear
46 °F
Feels Like 43 °F
N
7
Wind Variable Wind from NE

Today
High -- | Low -- °F
--% Chance of Precip.
Yesterday
High -- | Low -- °F
Precip. -- in
6:55 AM 6:18 PM
Waxing Gibbous, 97% visible
Pressure 30.27 in
Visibility 6.2 miles
Clouds
Windchill 43 °F
Dew Point 39 °F
Humidity 76%
Rainfall 0.00 in
Snow Depth Not available.
UV Not available.
Pollen Not available.
Air Quality Not available.
Flu Activity Not available.
METAR LFKJ 032330Z AUTO 04006KT 9999 NSC 08/04 Q1025

More Conditions Fewer Conditions

Pressure 30.27 in
Visibility 6.2 miles
Clouds
Windchill 43 °F
Dew Point 39 °F
Humidity 76%
Rainfall 0.00 in
Snow Depth Not available.
UV Not available.
Pollen Not available.
Air Quality Not available.
Flu Activity Not available.
METAR LFKJ 032330Z AUTO 04006KT 9999 NSC 08/04 Q1025

More Conditions Fewer Conditions

10-Day Weather Forecast

Almanac

Astronomy

Mar. 04, 2015 Rise Set
Actual Time
Civil Twilight
Nautical Twilight
Astronomical Twilight
Moon
Length of Visible Light
Length of Day
Tomorrow will be .
, % of the Moon is Illuminated

Today's Extremes

Country Highs Country Lows

Community

WunderPhotos

Upload Photos

1,802,305 photos uploaded!

WunderBlogs® & News

Nearby

Air Quality

  Air Quality AQ Index Pollutant
Not available.

Snow Depth

Station Depth Elevation

Earthquake Activity

City Distance Mag. Time & Date
Minimum magnitude displayed is 2.5.

Coastal Water Temperatures

Place Temperature

Nearby Weather Stations